sensor_id;sensor_type;location;lat;lon;timestamp;P1;durP1;ratioP1;P2;durP2;ratioP2
40072;SDS011;25774;52.256;9.356;2022-12-07T00:01:35;24.15;;;13.05;;
40072;SDS011;25774;52.256;9.356;2022-12-07T00:04:06;26.20;;;13.35;;
40072;SDS011;25774;52.256;9.356;2022-12-07T00:06:37;20.90;;;12.95;;
40072;SDS011;25774;52.256;9.356;2022-12-07T00:09:04;28.42;;;13.77;;
40072;SDS011;25774;52.256;9.356;2022-12-07T00:11:30;21.77;;;12.32;;
40072;SDS011;25774;52.256;9.356;2022-12-07T00:13:57;18.92;;;11.30;;
40072;SDS011;25774;52.256;9.356;2022-12-07T00:16:28;21.38;;;12.30;;
40072;SDS011;25774;52.256;9.356;2022-12-07T00:18:55;22.83;;;11.27;;
40072;SDS011;25774;52.256;9.356;2022-12-07T00:21:22;19.02;;;11.35;;
40072;SDS011;25774;52.256;9.356;2022-12-07T00:23:50;19.98;;;10.82;;
40072;SDS011;25774;52.256;9.356;2022-12-07T00:28:47;18.88;;;10.93;;
40072;SDS011;25774;52.256;9.356;2022-12-07T00:31:14;21.45;;;11.55;;
40072;SDS011;25774;52.256;9.356;2022-12-07T00:33:40;20.77;;;11.68;;
40072;SDS011;25774;52.256;9.356;2022-12-07T00:36:07;25.02;;;11.73;;
40072;SDS011;25774;52.256;9.356;2022-12-07T00:38:35;23.25;;;12.82;;
40072;SDS011;25774;52.256;9.356;2022-12-07T00:41:03;24.15;;;13.45;;
40072;SDS011;25774;52.256;9.356;2022-12-07T00:43:31;22.33;;;12.77;;
40072;SDS011;25774;52.256;9.356;2022-12-07T00:45:56;22.20;;;12.18;;
40072;SDS011;25774;52.256;9.356;2022-12-07T00:48:22;23.63;;;12.82;;
40072;SDS011;25774;52.256;9.356;2022-12-07T00:50:48;22.40;;;12.02;;
40072;SDS011;25774;52.256;9.356;2022-12-07T00:53:14;20.75;;;11.93;;
40072;SDS011;25774;52.256;9.356;2022-12-07T00:55:41;22.42;;;11.82;;
40072;SDS011;25774;52.256;9.356;2022-12-07T00:58:07;20.30;;;11.75;;
40072;SDS011;25774;52.256;9.356;2022-12-07T01:00:32;20.07;;;11.70;;
40072;SDS011;25774;52.256;9.356;2022-12-07T01:02:59;21.70;;;12.45;;
40072;SDS011;25774;52.256;9.356;2022-12-07T01:05:25;23.63;;;12.73;;
40072;SDS011;25774;52.256;9.356;2022-12-07T01:07:50;21.93;;;11.93;;
40072;SDS011;25774;52.256;9.356;2022-12-07T01:10:15;21.47;;;12.63;;
40072;SDS011;25774;52.256;9.356;2022-12-07T01:12:43;24.20;;;12.93;;
40072;SDS011;25774;52.256;9.356;2022-12-07T01:15:08;22.35;;;12.35;;
40072;SDS011;25774;52.256;9.356;2022-12-07T01:17:34;24.35;;;13.52;;
40072;SDS011;25774;52.256;9.356;2022-12-07T01:20:01;18.27;;;10.67;;
40072;SDS011;25774;52.256;9.356;2022-12-07T01:22:26;22.77;;;12.55;;
40072;SDS011;25774;52.256;9.356;2022-12-07T01:24:53;23.92;;;13.18;;
40072;SDS011;25774;52.256;9.356;2022-12-07T01:27:20;26.05;;;12.95;;
40072;SDS011;25774;52.256;9.356;2022-12-07T01:29:46;21.33;;;11.43;;
40072;SDS011;25774;52.256;9.356;2022-12-07T01:32:12;22.60;;;12.47;;
40072;SDS011;25774;52.256;9.356;2022-12-07T01:34:37;22.67;;;12.73;;
40072;SDS011;25774;52.256;9.356;2022-12-07T01:37:02;23.57;;;11.83;;
40072;SDS011;25774;52.256;9.356;2022-12-07T01:39:28;22.80;;;11.63;;
40072;SDS011;25774;52.256;9.356;2022-12-07T01:41:53;23.23;;;12.47;;
40072;SDS011;25774;52.256;9.356;2022-12-07T01:44:23;24.33;;;12.77;;
40072;SDS011;25774;52.256;9.356;2022-12-07T01:46:50;22.83;;;12.10;;
40072;SDS011;25774;52.256;9.356;2022-12-07T01:49:23;26.48;;;11.35;;
40072;SDS011;25774;52.256;9.356;2022-12-07T01:52:16;17.35;;;10.32;;
40072;SDS011;25774;52.256;9.356;2022-12-07T01:54:46;30.40;;;12.55;;
40072;SDS011;25774;52.256;9.356;2022-12-07T01:57:14;24.25;;;11.07;;
40072;SDS011;25774;52.256;9.356;2022-12-07T01:59:41;17.38;;;10.50;;
40072;SDS011;25774;52.256;9.356;2022-12-07T02:02:11;21.15;;;11.05;;
40072;SDS011;25774;52.256;9.356;2022-12-07T02:04:44;21.38;;;10.48;;
40072;SDS011;25774;52.256;9.356;2022-12-07T02:07:10;19.35;;;10.43;;
40072;SDS011;25774;52.256;9.356;2022-12-07T02:09:36;23.15;;;11.93;;
40072;SDS011;25774;52.256;9.356;2022-12-07T02:12:02;23.60;;;11.10;;
40072;SDS011;25774;52.256;9.356;2022-12-07T02:14:28;22.85;;;11.05;;
40072;SDS011;25774;52.256;9.356;2022-12-07T02:17:05;16.20;;;8.37;;
40072;SDS011;25774;52.256;9.356;2022-12-07T02:20:15;17.85;;;9.30;;
40072;SDS011;25774;52.256;9.356;2022-12-07T02:30:38;14.10;;;8.32;;
40072;SDS011;25774;52.256;9.356;2022-12-07T02:33:11;19.27;;;8.85;;
40072;SDS011;25774;52.256;9.356;2022-12-07T02:35:44;16.42;;;8.00;;
40072;SDS011;25774;52.256;9.356;2022-12-07T02:38:18;16.52;;;8.65;;
40072;SDS011;25774;52.256;9.356;2022-12-07T02:40:51;20.80;;;9.50;;
40072;SDS011;25774;52.256;9.356;2022-12-07T02:43:28;18.77;;;9.30;;
40072;SDS011;25774;52.256;9.356;2022-12-07T02:46:24;19.17;;;9.80;;
40072;SDS011;25774;52.256;9.356;2022-12-07T02:48:55;18.33;;;9.55;;
40072;SDS011;25774;52.256;9.356;2022-12-07T02:51:24;18.05;;;9.35;;
40072;SDS011;25774;52.256;9.356;2022-12-07T02:53:50;19.73;;;9.60;;
40072;SDS011;25774;52.256;9.356;2022-12-07T03:13:09;16.02;;;6.38;;
40072;SDS011;25774;52.256;9.356;2022-12-07T03:15:42;17.13;;;7.65;;
40072;SDS011;25774;52.256;9.356;2022-12-07T03:18:16;15.95;;;7.40;;
40072;SDS011;25774;52.256;9.356;2022-12-07T03:20:45;18.23;;;7.82;;
40072;SDS011;25774;52.256;9.356;2022-12-07T03:23:13;16.52;;;6.82;;
40072;SDS011;25774;52.256;9.356;2022-12-07T03:25:42;15.55;;;6.38;;
40072;SDS011;25774;52.256;9.356;2022-12-07T03:28:12;34.83;;;8.52;;
40072;SDS011;25774;52.256;9.356;2022-12-07T03:30:57;13.90;;;6.72;;
40072;SDS011;25774;52.256;9.356;2022-12-07T03:34:01;18.83;;;7.20;;
40072;SDS011;25774;52.256;9.356;2022-12-07T03:36:37;18.27;;;7.70;;
40072;SDS011;25774;52.256;9.356;2022-12-07T03:41:39;18.95;;;8.98;;
40072;SDS011;25774;52.256;9.356;2022-12-07T03:44:04;19.20;;;8.88;;
40072;SDS011;25774;52.256;9.356;2022-12-07T03:46:51;19.15;;;8.60;;
40072;SDS011;25774;52.256;9.356;2022-12-07T03:51:57;19.73;;;7.78;;
40072;SDS011;25774;52.256;9.356;2022-12-07T03:54:37;14.27;;;7.78;;
40072;SDS011;25774;52.256;9.356;2022-12-07T03:57:10;16.70;;;7.95;;
40072;SDS011;25774;52.256;9.356;2022-12-07T03:59:37;17.63;;;7.75;;
40072;SDS011;25774;52.256;9.356;2022-12-07T04:02:06;22.80;;;8.85;;
40072;SDS011;25774;52.256;9.356;2022-12-07T04:04:32;22.40;;;9.63;;
40072;SDS011;25774;52.256;9.356;2022-12-07T04:06:59;19.40;;;8.90;;
40072;SDS011;25774;52.256;9.356;2022-12-07T04:09:24;20.43;;;8.67;;
40072;SDS011;25774;52.256;9.356;2022-12-07T04:11:50;18.73;;;7.43;;
40072;SDS011;25774;52.256;9.356;2022-12-07T04:14:16;20.00;;;7.73;;
40072;SDS011;25774;52.256;9.356;2022-12-07T04:16:48;17.42;;;7.47;;
40072;SDS011;25774;52.256;9.356;2022-12-07T04:19:16;16.20;;;7.50;;
40072;SDS011;25774;52.256;9.356;2022-12-07T04:21:43;14.65;;;8.27;;
40072;SDS011;25774;52.256;9.356;2022-12-07T04:24:09;15.97;;;7.57;;
40072;SDS011;25774;52.256;9.356;2022-12-07T04:26:35;14.43;;;6.85;;
40072;SDS011;25774;52.256;9.356;2022-12-07T04:29:00;17.98;;;7.13;;
40072;SDS011;25774;52.256;9.356;2022-12-07T04:31:27;22.13;;;6.73;;
40072;SDS011;25774;52.256;9.356;2022-12-07T04:33:53;18.77;;;7.25;;
40072;SDS011;25774;52.256;9.356;2022-12-07T04:36:18;20.63;;;7.50;;
40072;SDS011;25774;52.256;9.356;2022-12-07T04:38:45;18.35;;;7.72;;
40072;SDS011;25774;52.256;9.356;2022-12-07T04:41:11;18.63;;;7.00;;
40072;SDS011;25774;52.256;9.356;2022-12-07T04:43:39;16.17;;;7.23;;
40072;SDS011;25774;52.256;9.356;2022-12-07T04:46:04;14.68;;;6.30;;
40072;SDS011;25774;52.256;9.356;2022-12-07T04:48:29;19.57;;;6.53;;
40072;SDS011;25774;52.256;9.356;2022-12-07T04:50:55;11.70;;;5.93;;
40072;SDS011;25774;52.256;9.356;2022-12-07T04:53:20;13.93;;;6.63;;
40072;SDS011;25774;52.256;9.356;2022-12-07T04:55:46;11.87;;;6.00;;
40072;SDS011;25774;52.256;9.356;2022-12-07T04:58:13;17.10;;;6.67;;
40072;SDS011;25774;52.256;9.356;2022-12-07T05:00:39;13.50;;;5.68;;
40072;SDS011;25774;52.256;9.356;2022-12-07T05:03:07;13.10;;;5.47;;
40072;SDS011;25774;52.256;9.356;2022-12-07T05:05:32;12.32;;;4.50;;
40072;SDS011;25774;52.256;9.356;2022-12-07T05:07:58;13.10;;;4.03;;
40072;SDS011;25774;52.256;9.356;2022-12-07T05:10:24;11.17;;;4.40;;
40072;SDS011;25774;52.256;9.356;2022-12-07T05:12:50;14.35;;;4.15;;
40072;SDS011;25774;52.256;9.356;2022-12-07T05:15:16;12.30;;;3.38;;
40072;SDS011;25774;52.256;9.356;2022-12-07T05:17:41;9.77;;;3.87;;
40072;SDS011;25774;52.256;9.356;2022-12-07T05:20:08;10.80;;;3.53;;
40072;SDS011;25774;52.256;9.356;2022-12-07T05:22:34;7.45;;;2.92;;
40072;SDS011;25774;52.256;9.356;2022-12-07T05:25:00;12.68;;;3.83;;
40072;SDS011;25774;52.256;9.356;2022-12-07T05:27:25;10.03;;;3.90;;
40072;SDS011;25774;52.256;9.356;2022-12-07T05:29:51;8.23;;;3.37;;
40072;SDS011;25774;52.256;9.356;2022-12-07T05:32:16;6.22;;;3.17;;
40072;SDS011;25774;52.256;9.356;2022-12-07T05:34:42;10.38;;;2.55;;
40072;SDS011;25774;52.256;9.356;2022-12-07T05:37:08;9.07;;;2.97;;
40072;SDS011;25774;52.256;9.356;2022-12-07T05:39:34;9.43;;;3.20;;
40072;SDS011;25774;52.256;9.356;2022-12-07T05:42:00;8.05;;;2.70;;
40072;SDS011;25774;52.256;9.356;2022-12-07T05:44:47;10.30;;;2.92;;
40072;SDS011;25774;52.256;9.356;2022-12-07T05:47:13;11.15;;;3.78;;
40072;SDS011;25774;52.256;9.356;2022-12-07T05:52:05;8.70;;;2.85;;
40072;SDS011;25774;52.256;9.356;2022-12-07T05:54:31;7.28;;;3.03;;
40072;SDS011;25774;52.256;9.356;2022-12-07T05:56:56;13.38;;;3.03;;
40072;SDS011;25774;52.256;9.356;2022-12-07T05:59:22;13.43;;;3.53;;
40072;SDS011;25774;52.256;9.356;2022-12-07T06:04:32;13.00;;;4.00;;
40072;SDS011;25774;52.256;9.356;2022-12-07T06:07:00;6.70;;;2.75;;
40072;SDS011;25774;52.256;9.356;2022-12-07T06:09:26;9.57;;;3.25;;
40072;SDS011;25774;52.256;9.356;2022-12-07T06:11:52;8.55;;;3.08;;
40072;SDS011;25774;52.256;9.356;2022-12-07T06:14:37;6.93;;;2.20;;
40072;SDS011;25774;52.256;9.356;2022-12-07T06:17:02;4.93;;;2.22;;
40072;SDS011;25774;52.256;9.356;2022-12-07T06:19:28;8.10;;;2.23;;
40072;SDS011;25774;52.256;9.356;2022-12-07T06:21:54;7.72;;;2.60;;
40072;SDS011;25774;52.256;9.356;2022-12-07T06:24:20;8.90;;;2.10;;
40072;SDS011;25774;52.256;9.356;2022-12-07T06:26:46;5.63;;;2.28;;
40072;SDS011;25774;52.256;9.356;2022-12-07T06:31:41;7.15;;;2.33;;
40072;SDS011;25774;52.256;9.356;2022-12-07T06:36:34;6.18;;;2.38;;
40072;SDS011;25774;52.256;9.356;2022-12-07T06:38:59;4.60;;;1.80;;
40072;SDS011;25774;52.256;9.356;2022-12-07T06:41:25;10.52;;;2.78;;
40072;SDS011;25774;52.256;9.356;2022-12-07T06:43:51;9.77;;;2.77;;
40072;SDS011;25774;52.256;9.356;2022-12-07T06:46:16;5.67;;;1.80;;
40072;SDS011;25774;52.256;9.356;2022-12-07T06:48:42;6.53;;;2.20;;
40072;SDS011;25774;52.256;9.356;2022-12-07T06:51:08;5.72;;;1.85;;
40072;SDS011;25774;52.256;9.356;2022-12-07T06:56:00;7.15;;;1.67;;
40072;SDS011;25774;52.256;9.356;2022-12-07T06:58:26;7.57;;;1.87;;
40072;SDS011;25774;52.256;9.356;2022-12-07T07:00:51;4.17;;;1.53;;
40072;SDS011;25774;52.256;9.356;2022-12-07T07:03:16;6.73;;;2.33;;
40072;SDS011;25774;52.256;9.356;2022-12-07T07:05:43;6.20;;;1.38;;
40072;SDS011;25774;52.256;9.356;2022-12-07T07:08:09;10.43;;;1.70;;
40072;SDS011;25774;52.256;9.356;2022-12-07T07:10:35;4.93;;;1.27;;
40072;SDS011;25774;52.256;9.356;2022-12-07T07:13:01;4.60;;;1.42;;
40072;SDS011;25774;52.256;9.356;2022-12-07T07:15:27;8.68;;;1.67;;
40072;SDS011;25774;52.256;9.356;2022-12-07T07:17:53;8.63;;;1.67;;
40072;SDS011;25774;52.256;9.356;2022-12-07T07:20:18;7.10;;;1.55;;
40072;SDS011;25774;52.256;9.356;2022-12-07T07:22:44;4.25;;;1.55;;
40072;SDS011;25774;52.256;9.356;2022-12-07T07:25:10;7.00;;;2.03;;
40072;SDS011;25774;52.256;9.356;2022-12-07T07:27:35;8.40;;;1.90;;
40072;SDS011;25774;52.256;9.356;2022-12-07T07:30:02;8.70;;;1.87;;
40072;SDS011;25774;52.256;9.356;2022-12-07T07:32:28;6.00;;;2.25;;
40072;SDS011;25774;52.256;9.356;2022-12-07T07:34:54;4.00;;;1.67;;
40072;SDS011;25774;52.256;9.356;2022-12-07T07:37:19;5.85;;;1.67;;
40072;SDS011;25774;52.256;9.356;2022-12-07T07:39:45;8.10;;;1.77;;
40072;SDS011;25774;52.256;9.356;2022-12-07T07:42:10;6.53;;;1.40;;
40072;SDS011;25774;52.256;9.356;2022-12-07T07:44:35;3.57;;;1.13;;
40072;SDS011;25774;52.256;9.356;2022-12-07T07:47:01;3.87;;;1.60;;
40072;SDS011;25774;52.256;9.356;2022-12-07T07:49:27;4.18;;;1.63;;
40072;SDS011;25774;52.256;9.356;2022-12-07T07:51:53;10.23;;;1.70;;
40072;SDS011;25774;52.256;9.356;2022-12-07T07:54:18;6.80;;;1.70;;
40072;SDS011;25774;52.256;9.356;2022-12-07T07:56:43;5.00;;;2.20;;
40072;SDS011;25774;52.256;9.356;2022-12-07T07:59:09;3.53;;;1.27;;
40072;SDS011;25774;52.256;9.356;2022-12-07T08:01:34;7.20;;;1.40;;
40072;SDS011;25774;52.256;9.356;2022-12-07T08:04:02;8.17;;;2.30;;
40072;SDS011;25774;52.256;9.356;2022-12-07T08:06:27;5.70;;;2.00;;
40072;SDS011;25774;52.256;9.356;2022-12-07T08:08:53;5.70;;;2.20;;
40072;SDS011;25774;52.256;9.356;2022-12-07T08:11:18;4.70;;;2.10;;
40072;SDS011;25774;52.256;9.356;2022-12-07T08:13:47;8.70;;;2.37;;
40072;SDS011;25774;52.256;9.356;2022-12-07T08:16:15;7.60;;;2.05;;
40072;SDS011;25774;52.256;9.356;2022-12-07T08:18:41;7.13;;;2.50;;
40072;SDS011;25774;52.256;9.356;2022-12-07T08:21:08;6.25;;;1.98;;
40072;SDS011;25774;52.256;9.356;2022-12-07T08:23:37;9.35;;;2.40;;
40072;SDS011;25774;52.256;9.356;2022-12-07T08:26:04;5.32;;;1.85;;
40072;SDS011;25774;52.256;9.356;2022-12-07T08:28:32;8.23;;;2.85;;
40072;SDS011;25774;52.256;9.356;2022-12-07T08:31:04;5.13;;;2.10;;
40072;SDS011;25774;52.256;9.356;2022-12-07T08:33:31;7.15;;;1.90;;
40072;SDS011;25774;52.256;9.356;2022-12-07T08:36:03;4.50;;;1.42;;
40072;SDS011;25774;52.256;9.356;2022-12-07T08:38:30;6.85;;;1.52;;
40072;SDS011;25774;52.256;9.356;2022-12-07T08:40:56;4.00;;;0.98;;
40072;SDS011;25774;52.256;9.356;2022-12-07T08:43:23;2.20;;;1.20;;
40072;SDS011;25774;52.256;9.356;2022-12-07T08:45:50;5.38;;;1.17;;
40072;SDS011;25774;52.256;9.356;2022-12-07T08:48:30;4.35;;;0.85;;
40072;SDS011;25774;52.256;9.356;2022-12-07T08:50:57;5.88;;;1.40;;
40072;SDS011;25774;52.256;9.356;2022-12-07T08:53:23;4.57;;;1.27;;
40072;SDS011;25774;52.256;9.356;2022-12-07T08:55:48;6.07;;;0.87;;
40072;SDS011;25774;52.256;9.356;2022-12-07T08:58:14;3.25;;;1.10;;
40072;SDS011;25774;52.256;9.356;2022-12-07T09:00:39;5.73;;;1.70;;
40072;SDS011;25774;52.256;9.356;2022-12-07T09:03:05;3.13;;;1.00;;
40072;SDS011;25774;52.256;9.356;2022-12-07T09:05:31;7.93;;;1.60;;
40072;SDS011;25774;52.256;9.356;2022-12-07T09:08:00;5.55;;;1.45;;
40072;SDS011;25774;52.256;9.356;2022-12-07T09:10:26;2.90;;;0.90;;
40072;SDS011;25774;52.256;9.356;2022-12-07T09:15:18;4.63;;;1.00;;
40072;SDS011;25774;52.256;9.356;2022-12-07T09:17:43;9.23;;;0.90;;
40072;SDS011;25774;52.256;9.356;2022-12-07T09:20:09;6.83;;;1.50;;
40072;SDS011;25774;52.256;9.356;2022-12-07T09:22:35;5.82;;;0.80;;
40072;SDS011;25774;52.256;9.356;2022-12-07T09:25:00;1.83;;;0.70;;
40072;SDS011;25774;52.256;9.356;2022-12-07T09:27:27;4.07;;;0.80;;
40072;SDS011;25774;52.256;9.356;2022-12-07T09:32:18;3.00;;;0.70;;
40072;SDS011;25774;52.256;9.356;2022-12-07T09:34:44;6.33;;;1.43;;
40072;SDS011;25774;52.256;9.356;2022-12-07T09:37:10;4.35;;;1.15;;
40072;SDS011;25774;52.256;9.356;2022-12-07T09:39:37;2.93;;;0.73;;
40072;SDS011;25774;52.256;9.356;2022-12-07T09:42:05;5.60;;;0.90;;
40072;SDS011;25774;52.256;9.356;2022-12-07T09:44:32;4.43;;;0.90;;
40072;SDS011;25774;52.256;9.356;2022-12-07T09:46:58;2.70;;;0.88;;
40072;SDS011;25774;52.256;9.356;2022-12-07T09:49:24;6.07;;;1.20;;
40072;SDS011;25774;52.256;9.356;2022-12-07T09:54:37;7.40;;;0.98;;
40072;SDS011;25774;52.256;9.356;2022-12-07T09:57:10;3.80;;;1.40;;
40072;SDS011;25774;52.256;9.356;2022-12-07T09:59:37;3.15;;;1.10;;
40072;SDS011;25774;52.256;9.356;2022-12-07T10:02:23;7.50;;;1.40;;
40072;SDS011;25774;52.256;9.356;2022-12-07T10:04:57;7.75;;;1.70;;
40072;SDS011;25774;52.256;9.356;2022-12-07T10:07:24;5.75;;;1.50;;
40072;SDS011;25774;52.256;9.356;2022-12-07T10:09:49;6.25;;;1.55;;
40072;SDS011;25774;52.256;9.356;2022-12-07T10:12:15;4.83;;;1.67;;
40072;SDS011;25774;52.256;9.356;2022-12-07T10:14:53;5.77;;;2.00;;
40072;SDS011;25774;52.256;9.356;2022-12-07T10:22:57;5.68;;;1.85;;
40072;SDS011;25774;52.256;9.356;2022-12-07T10:25:26;7.82;;;1.80;;
40072;SDS011;25774;52.256;9.356;2022-12-07T10:28:14;6.47;;;2.13;;
40072;SDS011;25774;52.256;9.356;2022-12-07T10:41:35;6.10;;;1.42;;
40072;SDS011;25774;52.256;9.356;2022-12-07T10:44:00;6.60;;;1.70;;
40072;SDS011;25774;52.256;9.356;2022-12-07T10:51:58;4.78;;;1.60;;
40072;SDS011;25774;52.256;9.356;2022-12-07T10:54:43;5.68;;;1.75;;
40072;SDS011;25774;52.256;9.356;2022-12-07T11:00:42;7.57;;;1.95;;
40072;SDS011;25774;52.256;9.356;2022-12-07T11:08:54;11.45;;;1.85;;
40072;SDS011;25774;52.256;9.356;2022-12-07T11:11:38;10.45;;;1.58;;
40072;SDS011;25774;52.256;9.356;2022-12-07T11:17:35;6.07;;;1.77;;
40072;SDS011;25774;52.256;9.356;2022-12-07T11:20:44;7.82;;;1.70;;
40072;SDS011;25774;52.256;9.356;2022-12-07T11:34:15;4.85;;;1.55;;
40072;SDS011;25774;52.256;9.356;2022-12-07T11:36:45;8.40;;;1.95;;
40072;SDS011;25774;52.256;9.356;2022-12-07T11:41:44;10.10;;;3.05;;
40072;SDS011;25774;52.256;9.356;2022-12-07T11:44:18;6.65;;;1.70;;
40072;SDS011;25774;52.256;9.356;2022-12-07T11:52:12;7.97;;;1.75;;
40072;SDS011;25774;52.256;9.356;2022-12-07T11:54:45;7.15;;;2.63;;
40072;SDS011;25774;52.256;9.356;2022-12-07T11:57:17;8.15;;;1.55;;
40072;SDS011;25774;52.256;9.356;2022-12-07T11:59:51;6.10;;;2.15;;
40072;SDS011;25774;52.256;9.356;2022-12-07T12:02:37;7.57;;;1.85;;
40072;SDS011;25774;52.256;9.356;2022-12-07T12:07:40;8.63;;;1.60;;
40072;SDS011;25774;52.256;9.356;2022-12-07T12:10:31;6.40;;;1.10;;
40072;SDS011;25774;52.256;9.356;2022-12-07T12:15:57;14.32;;;1.42;;
40072;SDS011;25774;52.256;9.356;2022-12-07T12:18:36;9.88;;;1.40;;
40072;SDS011;25774;52.256;9.356;2022-12-07T12:21:22;6.65;;;1.23;;
40072;SDS011;25774;52.256;9.356;2022-12-07T12:24:09;5.45;;;1.27;;
40072;SDS011;25774;52.256;9.356;2022-12-07T12:26:41;9.70;;;1.40;;
40072;SDS011;25774;52.256;9.356;2022-12-07T12:38:27;6.78;;;1.17;;
40072;SDS011;25774;52.256;9.356;2022-12-07T12:40:56;5.90;;;1.13;;
40072;SDS011;25774;52.256;9.356;2022-12-07T12:51:43;5.32;;;0.98;;
40072;SDS011;25774;52.256;9.356;2022-12-07T13:28:50;6.53;;;0.77;;
40072;SDS011;25774;52.256;9.356;2022-12-07T13:34:04;6.72;;;1.33;;
40072;SDS011;25774;52.256;9.356;2022-12-07T13:36:49;3.55;;;0.88;;
40072;SDS011;25774;52.256;9.356;2022-12-07T13:42:30;4.53;;;0.75;;
40072;SDS011;25774;52.256;9.356;2022-12-07T13:44:58;7.57;;;1.00;;
40072;SDS011;25774;52.256;9.356;2022-12-07T13:50:00;4.60;;;0.77;;
40072;SDS011;25774;52.256;9.356;2022-12-07T13:52:27;7.67;;;0.93;;
40072;SDS011;25774;52.256;9.356;2022-12-07T13:55:16;3.40;;;0.77;;
40072;SDS011;25774;52.256;9.356;2022-12-07T13:57:41;4.40;;;0.63;;
40072;SDS011;25774;52.256;9.356;2022-12-07T14:00:18;3.83;;;0.77;;
40072;SDS011;25774;52.256;9.356;2022-12-07T14:02:58;7.25;;;1.08;;
40072;SDS011;25774;52.256;9.356;2022-12-07T14:05:32;3.55;;;0.70;;
40072;SDS011;25774;52.256;9.356;2022-12-07T14:08:00;13.55;;;2.38;;
40072;SDS011;25774;52.256;9.356;2022-12-07T14:10:28;5.30;;;0.80;;
40072;SDS011;25774;52.256;9.356;2022-12-07T14:12:54;7.32;;;0.90;;
40072;SDS011;25774;52.256;9.356;2022-12-07T14:17:51;4.57;;;0.85;;
40072;SDS011;25774;52.256;9.356;2022-12-07T14:20:28;4.32;;;0.93;;
40072;SDS011;25774;52.256;9.356;2022-12-07T14:23:01;4.57;;;0.95;;
40072;SDS011;25774;52.256;9.356;2022-12-07T14:25:44;5.90;;;1.20;;
40072;SDS011;25774;52.256;9.356;2022-12-07T14:28:30;10.32;;;1.20;;
40072;SDS011;25774;52.256;9.356;2022-12-07T14:30:58;7.60;;;1.08;;
40072;SDS011;25774;52.256;9.356;2022-12-07T14:33:25;5.78;;;1.15;;
40072;SDS011;25774;52.256;9.356;2022-12-07T14:35:51;7.55;;;1.23;;
40072;SDS011;25774;52.256;9.356;2022-12-07T14:38:20;2.25;;;0.85;;
40072;SDS011;25774;52.256;9.356;2022-12-07T14:40:47;5.43;;;1.33;;
40072;SDS011;25774;52.256;9.356;2022-12-07T14:43:17;4.40;;;1.05;;
40072;SDS011;25774;52.256;9.356;2022-12-07T14:45:43;9.30;;;1.17;;
40072;SDS011;25774;52.256;9.356;2022-12-07T14:48:13;7.93;;;0.97;;
40072;SDS011;25774;52.256;9.356;2022-12-07T14:50:44;6.65;;;0.88;;
40072;SDS011;25774;52.256;9.356;2022-12-07T14:53:14;3.92;;;1.00;;
40072;SDS011;25774;52.256;9.356;2022-12-07T14:55:42;6.35;;;0.98;;
40072;SDS011;25774;52.256;9.356;2022-12-07T14:58:13;5.40;;;1.30;;
40072;SDS011;25774;52.256;9.356;2022-12-07T15:00:39;3.33;;;1.17;;
40072;SDS011;25774;52.256;9.356;2022-12-07T15:03:06;5.20;;;0.80;;
40072;SDS011;25774;52.256;9.356;2022-12-07T15:05:32;7.13;;;1.00;;
40072;SDS011;25774;52.256;9.356;2022-12-07T15:07:58;4.15;;;0.93;;
40072;SDS011;25774;52.256;9.356;2022-12-07T15:10:25;8.63;;;1.20;;
40072;SDS011;25774;52.256;9.356;2022-12-07T15:12:55;5.78;;;1.20;;
40072;SDS011;25774;52.256;9.356;2022-12-07T15:15:40;11.23;;;1.42;;
40072;SDS011;25774;52.256;9.356;2022-12-07T15:18:06;5.57;;;1.13;;
40072;SDS011;25774;52.256;9.356;2022-12-07T15:20:31;4.47;;;0.90;;
40072;SDS011;25774;52.256;9.356;2022-12-07T15:22:57;6.27;;;1.37;;
40072;SDS011;25774;52.256;9.356;2022-12-07T15:25:22;5.03;;;1.00;;
40072;SDS011;25774;52.256;9.356;2022-12-07T15:27:48;7.20;;;1.20;;
40072;SDS011;25774;52.256;9.356;2022-12-07T15:30:14;6.35;;;0.75;;
40072;SDS011;25774;52.256;9.356;2022-12-07T15:32:39;7.17;;;1.00;;
40072;SDS011;25774;52.256;9.356;2022-12-07T15:35:05;4.30;;;1.10;;
40072;SDS011;25774;52.256;9.356;2022-12-07T15:37:30;6.57;;;1.10;;
40072;SDS011;25774;52.256;9.356;2022-12-07T15:39:56;8.47;;;1.23;;
40072;SDS011;25774;52.256;9.356;2022-12-07T15:42:21;6.97;;;1.40;;
40072;SDS011;25774;52.256;9.356;2022-12-07T15:44:48;9.30;;;1.40;;
40072;SDS011;25774;52.256;9.356;2022-12-07T15:47:31;6.82;;;2.40;;
40072;SDS011;25774;52.256;9.356;2022-12-07T15:49:58;6.03;;;1.50;;
40072;SDS011;25774;52.256;9.356;2022-12-07T15:52:25;4.63;;;1.10;;
40072;SDS011;25774;52.256;9.356;2022-12-07T15:54:50;5.22;;;1.40;;
40072;SDS011;25774;52.256;9.356;2022-12-07T15:57:15;4.20;;;1.20;;
40072;SDS011;25774;52.256;9.356;2022-12-07T15:59:41;7.90;;;1.47;;
40072;SDS011;25774;52.256;9.356;2022-12-07T16:02:07;7.17;;;1.80;;
40072;SDS011;25774;52.256;9.356;2022-12-07T16:04:34;5.72;;;1.55;;
40072;SDS011;25774;52.256;9.356;2022-12-07T16:07:00;4.63;;;1.48;;
40072;SDS011;25774;52.256;9.356;2022-12-07T16:09:26;10.30;;;1.80;;
40072;SDS011;25774;52.256;9.356;2022-12-07T16:11:51;9.13;;;1.67;;
40072;SDS011;25774;52.256;9.356;2022-12-07T16:14:17;9.63;;;1.67;;
40072;SDS011;25774;52.256;9.356;2022-12-07T16:16:42;8.00;;;1.70;;
40072;SDS011;25774;52.256;9.356;2022-12-07T16:19:08;7.80;;;1.67;;
40072;SDS011;25774;52.256;9.356;2022-12-07T16:21:35;10.02;;;1.48;;
40072;SDS011;25774;52.256;9.356;2022-12-07T16:24:01;6.72;;;1.40;;
40072;SDS011;25774;52.256;9.356;2022-12-07T16:26:27;4.13;;;1.60;;
40072;SDS011;25774;52.256;9.356;2022-12-07T16:28:53;8.80;;;1.83;;
40072;SDS011;25774;52.256;9.356;2022-12-07T16:31:22;11.85;;;1.90;;
40072;SDS011;25774;52.256;9.356;2022-12-07T16:33:50;12.07;;;1.83;;
40072;SDS011;25774;52.256;9.356;2022-12-07T16:36:18;8.10;;;1.58;;
40072;SDS011;25774;52.256;9.356;2022-12-07T16:38:44;9.60;;;2.10;;
40072;SDS011;25774;52.256;9.356;2022-12-07T16:41:10;11.82;;;1.95;;
40072;SDS011;25774;52.256;9.356;2022-12-07T16:43:37;9.00;;;2.88;;
40072;SDS011;25774;52.256;9.356;2022-12-07T16:46:03;8.27;;;2.80;;
40072;SDS011;25774;52.256;9.356;2022-12-07T16:48:28;12.77;;;2.95;;
40072;SDS011;25774;52.256;9.356;2022-12-07T16:50:54;12.80;;;3.33;;
40072;SDS011;25774;52.256;9.356;2022-12-07T16:53:20;8.07;;;2.05;;
40072;SDS011;25774;52.256;9.356;2022-12-07T16:55:47;8.93;;;2.33;;
40072;SDS011;25774;52.256;9.356;2022-12-07T16:58:14;9.45;;;2.50;;
40072;SDS011;25774;52.256;9.356;2022-12-07T17:00:41;7.22;;;2.10;;
40072;SDS011;25774;52.256;9.356;2022-12-07T17:03:07;4.47;;;1.98;;
40072;SDS011;25774;52.256;9.356;2022-12-07T17:05:36;7.10;;;2.03;;
40072;SDS011;25774;52.256;9.356;2022-12-07T17:08:03;11.98;;;2.20;;
40072;SDS011;25774;52.256;9.356;2022-12-07T17:10:28;10.57;;;2.77;;
40072;SDS011;25774;52.256;9.356;2022-12-07T17:12:54;12.77;;;2.50;;
40072;SDS011;25774;52.256;9.356;2022-12-07T17:15:21;9.47;;;2.27;;
40072;SDS011;25774;52.256;9.356;2022-12-07T17:17:56;14.10;;;3.05;;
40072;SDS011;25774;52.256;9.356;2022-12-07T17:20:23;5.32;;;2.08;;
40072;SDS011;25774;52.256;9.356;2022-12-07T17:22:51;5.63;;;1.90;;
40072;SDS011;25774;52.256;9.356;2022-12-07T17:25:17;6.07;;;1.77;;
40072;SDS011;25774;52.256;9.356;2022-12-07T17:27:44;6.85;;;3.78;;
40072;SDS011;25774;52.256;9.356;2022-12-07T17:30:10;7.53;;;2.35;;
40072;SDS011;25774;52.256;9.356;2022-12-07T17:32:36;7.00;;;2.40;;
40072;SDS011;25774;52.256;9.356;2022-12-07T17:35:02;5.33;;;2.07;;
40072;SDS011;25774;52.256;9.356;2022-12-07T17:37:27;8.18;;;1.90;;
40072;SDS011;25774;52.256;9.356;2022-12-07T17:39:54;6.53;;;2.27;;
40072;SDS011;25774;52.256;9.356;2022-12-07T17:42:22;8.32;;;1.92;;
40072;SDS011;25774;52.256;9.356;2022-12-07T17:45:04;7.82;;;2.22;;